createdAt,value
2022-08-01T00:01:21.864Z,22.50
2022-08-01T00:05:37.199Z,22.50
2022-08-01T00:09:51.018Z,22.50
2022-08-01T00:14:05.140Z,22.40
2022-08-01T00:18:18.929Z,22.50
2022-08-01T00:22:35.614Z,22.50
2022-08-01T00:26:49.337Z,22.40
2022-08-01T00:31:03.286Z,22.40
2022-08-01T00:35:17.423Z,22.40
2022-08-01T00:39:33.658Z,22.40
2022-08-01T00:43:47.456Z,22.40
2022-08-01T00:48:01.189Z,22.40
2022-08-01T00:52:15.158Z,22.50
2022-08-01T00:56:30.653Z,22.50
2022-08-01T01:00:53.194Z,22.60
2022-08-01T01:05:09.937Z,22.60
2022-08-01T01:09:35.093Z,22.60
2022-08-01T01:13:54.591Z,22.50
2022-08-01T01:18:13.546Z,22.40
2022-08-01T01:22:47.938Z,22.40
2022-08-01T01:27:12.599Z,22.30
2022-08-01T01:31:29.130Z,22.30
2022-08-01T01:35:48.568Z,22.40
2022-08-01T01:40:03.786Z,22.40
2022-08-01T01:44:20.278Z,22.50
2022-08-01T01:48:37.698Z,22.60
2022-08-01T01:52:53.188Z,22.60
2022-08-01T01:57:09.003Z,22.70
2022-08-01T02:01:58.897Z,22.70
2022-08-01T02:06:01.468Z,22.70
2022-08-01T02:10:17.833Z,22.70
2022-08-01T02:14:37.113Z,22.70
2022-08-01T02:18:50.874Z,22.70
2022-08-01T02:23:10.528Z,22.70
2022-08-01T02:27:28.735Z,22.60
2022-08-01T02:31:46.074Z,22.60
2022-08-01T02:36:28.978Z,22.50
2022-08-01T02:40:41.160Z,22.40
2022-08-01T02:44:56.414Z,22.30
2022-08-01T02:49:13.123Z,22.20
2022-08-01T02:53:39.052Z,22.20
2022-08-01T02:58:01.675Z,22.10
2022-08-01T03:02:17.350Z,22.10
2022-08-01T03:06:32.396Z,22.00
2022-08-01T03:10:48.976Z,22.00
2022-08-01T03:15:06.912Z,22.00
2022-08-01T03:19:26.527Z,22.00
2022-08-01T03:23:41.832Z,22.00
2022-08-01T03:27:59.185Z,22.00
2022-08-01T03:32:15.868Z,21.90
2022-08-01T03:36:32.819Z,21.90
2022-08-01T03:40:51.596Z,21.90
2022-08-01T03:45:13.490Z,21.90
2022-08-01T03:49:33.911Z,21.80
2022-08-01T03:53:50.300Z,21.80
2022-08-01T03:58:09.616Z,21.80
2022-08-01T04:02:24.520Z,21.80
2022-08-01T04:06:41.390Z,21.80
2022-08-01T04:10:55.173Z,21.90
2022-08-01T04:15:09.874Z,21.90
2022-08-01T04:19:24.588Z,21.90
2022-08-01T04:23:41.833Z,21.80
2022-08-01T04:27:56.718Z,21.80
2022-08-01T04:32:13.519Z,21.80
2022-08-01T04:36:29.914Z,21.80
2022-08-01T04:40:47.175Z,21.90
2022-08-01T04:45:01.198Z,22.00
2022-08-01T04:49:17.406Z,22.10
2022-08-01T04:53:33.400Z,22.10
2022-08-01T04:57:49.346Z,22.10
2022-08-01T05:02:03.356Z,22.10
2022-08-01T05:06:17.201Z,22.10
2022-08-01T05:10:31.787Z,22.10
2022-08-01T05:14:46.946Z,22.10
2022-08-01T05:19:00.810Z,22.10
2022-08-01T05:23:17.925Z,22.10
2022-08-01T05:27:50.790Z,22.10
2022-08-01T05:32:07.032Z,22.10
2022-08-01T05:36:21.006Z,22.20
2022-08-01T05:40:35.115Z,22.50
2022-08-01T05:44:50.712Z,22.80
2022-08-01T05:49:07.607Z,23.10
2022-08-01T05:53:21.429Z,23.40
2022-08-01T05:57:35.560Z,23.90
2022-08-01T06:01:52.906Z,24.80
2022-08-01T06:06:08.297Z,25.60
2022-08-01T06:10:22.331Z,26.30
2022-08-01T06:14:36.456Z,26.80
2022-08-01T06:18:52.833Z,26.60
2022-08-01T06:23:12.167Z,26.30
2022-08-01T06:27:43.996Z,26.20
2022-08-01T06:31:57.710Z,26.20
2022-08-01T06:36:11.423Z,26.10
2022-08-01T06:40:43.156Z,26.10
2022-08-01T06:44:57.727Z,26.30
2022-08-01T06:49:11.474Z,26.30
2022-08-01T06:53:25.729Z,26.20
2022-08-01T06:57:47.769Z,26.10
2022-08-01T07:02:02.219Z,26.10
2022-08-01T07:06:16.737Z,26.30
2022-08-01T07:10:30.677Z,26.50
2022-08-01T07:14:45.814Z,26.90
2022-08-01T07:18:59.524Z,27.00
2022-08-01T07:23:13.194Z,26.90
2022-08-01T07:27:27.254Z,26.60
2022-08-01T07:31:42.408Z,26.30
2022-08-01T07:35:56.759Z,26.00
2022-08-01T07:40:11.994Z,25.80
2022-08-01T07:44:28.231Z,26.20
2022-08-01T07:48:44.732Z,26.30
2022-08-01T07:52:58.431Z,26.20
2022-08-01T07:57:12.440Z,25.90
2022-08-01T08:01:26.212Z,25.50
2022-08-01T08:05:58.269Z,25.30
2022-08-01T08:10:14.090Z,25.40
2022-08-01T08:14:32.757Z,25.70
2022-08-01T08:18:46.742Z,25.90
2022-08-01T08:23:02.114Z,26.20
2022-08-01T08:27:16.490Z,26.80
2022-08-01T08:31:52.084Z,28.00
2022-08-01T08:36:03.964Z,29.30
2022-08-01T08:40:19.576Z,30.10
2022-08-01T08:44:33.345Z,31.80
2022-08-01T08:48:47.846Z,33.60
2022-08-01T08:53:03.085Z,33.70
2022-08-01T08:57:22.925Z,32.90
2022-08-01T09:01:36.704Z,32.20
2022-08-01T09:05:50.835Z,32.10
2022-08-01T09:10:05.433Z,32.00
2022-08-01T09:14:25.044Z,31.70
2022-08-01T09:18:41.622Z,31.70
2022-08-01T09:22:55.777Z,31.90
2022-08-01T09:27:22.380Z,32.10
2022-08-01T09:31:47.641Z,31.90
2022-08-01T09:36:01.746Z,31.90
2022-08-01T09:40:15.552Z,32.80
2022-08-01T09:44:42.146Z,32.90
2022-08-01T09:49:00.018Z,32.50
2022-08-01T09:53:29.389Z,31.80
2022-08-01T09:57:57.223Z,31.00
2022-08-01T10:02:14.460Z,30.50
2022-08-01T10:06:29.631Z,30.30
2022-08-01T10:10:44.675Z,30.00
2022-08-01T10:15:00.692Z,29.90
2022-08-01T10:19:15.526Z,30.10
2022-08-01T10:23:40.715Z,30.10
2022-08-01T10:27:56.634Z,30.40
2022-08-01T10:32:11.838Z,30.80
2022-08-01T10:36:26.848Z,32.30
2022-08-01T10:40:42.546Z,34.20
2022-08-01T10:44:57.693Z,35.20
2022-08-01T10:49:16.418Z,35.30
2022-08-01T10:53:31.480Z,36.10
2022-08-01T10:57:53.004Z,36.60
2022-08-01T11:02:07.933Z,36.60
2022-08-01T11:06:26.458Z,37.20
2022-08-01T11:10:44.013Z,37.50
2022-08-01T11:15:31.067Z,36.60
2022-08-01T11:20:11.057Z,36.20
2022-08-01T11:24:58.927Z,36.10
2022-08-01T11:29:21.724Z,35.60
2022-08-01T11:33:52.869Z,35.10
2022-08-01T11:38:29.234Z,34.90
2022-08-01T11:42:43.125Z,34.80
2022-08-01T11:47:08.642Z,34.30
2022-08-01T11:51:25.816Z,34.00
2022-08-01T11:55:47.731Z,33.90
2022-08-01T12:00:15.543Z,34.10
2022-08-01T12:04:56.211Z,34.10
2022-08-01T12:09:22.416Z,33.90
2022-08-01T12:13:44.159Z,33.30
2022-08-01T12:18:00.189Z,32.90
2022-08-01T12:22:15.424Z,32.40
2022-08-01T12:26:42.648Z,31.90
2022-08-01T12:30:56.370Z,31.40
2022-08-01T12:35:16.493Z,30.90
2022-08-01T12:39:34.185Z,30.70
2022-08-01T12:43:50.104Z,30.70
2022-08-01T12:48:09.523Z,30.70
2022-08-01T12:52:26.835Z,30.50
2022-08-01T12:56:41.113Z,30.20
2022-08-01T13:01:07.894Z,30.00
2022-08-01T13:05:26.499Z,29.80
2022-08-01T13:09:51.581Z,29.70
2022-08-01T13:14:05.361Z,29.80
2022-08-01T13:18:28.688Z,29.60
2022-08-01T13:22:42.509Z,29.50
2022-08-01T13:26:59.891Z,29.40
2022-08-01T13:31:13.725Z,29.40
2022-08-01T13:35:29.148Z,29.40
2022-08-01T13:39:46.901Z,29.40
2022-08-01T13:44:21.035Z,29.30
2022-08-01T13:48:55.095Z,29.30
2022-08-01T13:53:31.393Z,29.40
2022-08-01T13:58:06.116Z,29.50
2022-08-01T14:02:40.394Z,29.60
2022-08-01T14:07:15.192Z,29.60
2022-08-01T14:11:50.784Z,29.60
2022-08-01T14:16:25.199Z,29.60
2022-08-01T14:21:05.374Z,29.70
2022-08-01T14:26:00.405Z,29.60
2022-08-01T14:30:36.184Z,29.40
2022-08-01T14:35:11.116Z,29.30
2022-08-01T14:39:53.656Z,29.20
2022-08-01T14:44:28.777Z,29.10
2022-08-01T14:49:08.530Z,29.00
2022-08-01T14:53:50.590Z,29.00
2022-08-01T14:58:25.068Z,29.00
2022-08-01T15:02:59.146Z,28.80
2022-08-01T15:07:39.098Z,28.60
2022-08-01T15:12:25.712Z,28.40
2022-08-01T15:16:59.738Z,28.30
2022-08-01T15:21:41.807Z,28.20
2022-08-01T15:26:17.640Z,28.20
2022-08-01T15:30:51.635Z,28.10
2022-08-01T15:35:25.876Z,28.20
2022-08-01T15:39:59.998Z,28.30
2022-08-01T15:44:35.488Z,28.30
2022-08-01T15:49:09.741Z,28.20
2022-08-01T15:53:43.788Z,28.10
2022-08-01T15:58:17.733Z,28.00
2022-08-01T16:02:53.098Z,27.90
2022-08-01T16:07:27.113Z,27.80
2022-08-01T16:12:01.198Z,27.70
2022-08-01T16:16:35.275Z,27.60
2022-08-01T16:21:11.716Z,27.40
2022-08-01T16:25:46.146Z,27.30
2022-08-01T16:30:20.094Z,27.30
2022-08-01T16:34:54.272Z,27.30
2022-08-01T16:39:30.661Z,27.20
2022-08-01T16:44:09.199Z,27.10
2022-08-01T16:48:44.480Z,27.10
2022-08-01T16:53:19.177Z,27.00
2022-08-01T16:57:54.538Z,27.00
2022-08-01T17:02:28.612Z,26.90
2022-08-01T17:07:02.673Z,26.80
2022-08-01T17:11:36.624Z,26.70
2022-08-01T17:16:12.717Z,26.60
2022-08-01T17:20:48.400Z,26.50
2022-08-01T17:25:22.929Z,26.40
2022-08-01T17:29:56.879Z,26.30
2022-08-01T17:34:32.237Z,26.10
2022-08-01T17:39:08.515Z,26.00
2022-08-01T17:43:42.748Z,25.90
2022-08-01T17:48:17.307Z,25.70
2022-08-01T17:52:53.000Z,25.60
2022-08-01T17:57:27.258Z,25.50
2022-08-01T18:02:01.280Z,25.30
2022-08-01T18:06:38.963Z,25.20
2022-08-01T18:11:37.322Z,25.10
2022-08-01T18:16:13.089Z,25.00
2022-08-01T18:20:47.793Z,24.90
2022-08-01T18:25:23.258Z,24.80
2022-08-01T18:29:58.850Z,24.60
2022-08-01T18:34:32.986Z,24.60
2022-08-01T18:39:10.294Z,24.40
2022-08-01T18:43:44.764Z,24.30
2022-08-01T18:48:20.287Z,24.10
2022-08-01T18:52:54.787Z,23.90
2022-08-01T18:57:28.833Z,23.80
2022-08-01T19:02:04.983Z,23.60
2022-08-01T19:06:40.801Z,23.50
2022-08-01T19:11:15.065Z,23.30
2022-08-01T19:15:49.619Z,23.20
2022-08-01T19:20:24.032Z,23.10
2022-08-01T19:24:59.460Z,22.90
2022-08-01T19:29:36.758Z,22.80
2022-08-01T19:34:13.337Z,22.60
2022-08-01T19:38:48.146Z,22.50
2022-08-01T19:43:24.572Z,22.40
2022-08-01T19:47:59.988Z,22.30
2022-08-01T19:52:39.712Z,22.20
2022-08-01T19:57:16.323Z,22.20
2022-08-01T20:01:54.399Z,22.10
2022-08-01T20:06:30.878Z,22.00
2022-08-01T20:11:11.762Z,21.80
2022-08-01T20:15:48.340Z,21.70
2022-08-01T20:20:23.887Z,21.70
2022-08-01T20:25:00.825Z,21.60
2022-08-01T20:29:35.803Z,21.50
2022-08-01T20:34:15.873Z,21.50
2022-08-01T20:38:54.806Z,21.50
2022-08-01T20:43:29.123Z,21.40
2022-08-01T20:48:03.921Z,21.50
2022-08-01T20:52:37.992Z,21.60
2022-08-01T20:57:20.475Z,21.60
2022-08-01T21:02:01.517Z,21.60
2022-08-01T21:06:39.863Z,21.50
2022-08-01T21:11:17.284Z,21.40
2022-08-01T21:16:22.072Z,21.30
2022-08-01T21:20:59.755Z,21.20
2022-08-01T21:25:36.425Z,21.10
2022-08-01T21:30:11.217Z,21.00
2022-08-01T21:34:48.660Z,21.00
2022-08-01T21:39:22.998Z,20.90
2022-08-01T21:44:02.405Z,20.90
2022-08-01T21:48:38.549Z,20.70
2022-08-01T21:53:32.066Z,20.70
2022-08-01T21:58:22.531Z,20.60
2022-08-01T22:03:05.867Z,20.50
2022-08-01T22:07:45.514Z,20.40
2022-08-01T22:12:21.766Z,20.30
2022-08-01T22:16:56.809Z,20.30
2022-08-01T22:21:32.183Z,20.20
2022-08-01T22:26:09.146Z,20.20
2022-08-01T22:30:45.706Z,20.10
2022-08-01T22:35:19.799Z,20.10
2022-08-01T22:39:54.700Z,20.10
2022-08-01T22:44:36.011Z,20.00
2022-08-01T22:49:23.855Z,20.00
2022-08-01T22:54:05.576Z,19.90
2022-08-01T22:58:41.358Z,19.90
2022-08-01T23:03:20.997Z,19.90
2022-08-01T23:07:57.467Z,20.00
2022-08-01T23:12:33.222Z,20.20
2022-08-01T23:17:26.926Z,20.30
2022-08-01T23:22:04.030Z,20.50
2022-08-01T23:26:40.384Z,20.60
2022-08-01T23:31:15.569Z,20.70
2022-08-01T23:35:49.919Z,20.60
2022-08-01T23:40:25.051Z,20.60
2022-08-01T23:45:01.406Z,20.60
2022-08-01T23:49:35.606Z,20.50
2022-08-01T23:54:27.654Z,20.50
2022-08-01T23:59:12.025Z,20.30
